Ravensdale, Washington
Current Conditions -  °F | °C
As of 7:53 PM on Thursday 18 Dec 2014 (Local Time) from KRNT Reporting Station
Light Rain Light Rain  
Wind Chill: 47°   Ceiling: 6000
Heat Index: 47°   Visibility: 8mi
Dew Point: 44°   Wind: 3mph
Humidity: 90%   Direction: NA
Pressure: 29.73"   Gusts: NA
Location:  47.35°N, 121.99°W
Report Text: KRNT 190353Z AUTO VRB03KT 8SM -RA FEW050 OVC060 08/07 A2973 RMK AO2 RAB14 SLP073 P0007 T00830067
Loading
Personal Weather Stations






























Interactive Weather Map New forecast layout! Learn more

10-Day Weather Forecast

Advertisements
Track Severe Weather on mobile